sensor_id;sensor_type;location;lat;lon;timestamp;P1;durP1;ratioP1;P2;durP2;ratioP2
10719;SDS011;5411;58.386;15.560;2023-11-19T00:00:56;3.83;;;2.50;;
10719;SDS011;5411;58.386;15.560;2023-11-19T00:03:30;4.10;;;2.20;;
10719;SDS011;5411;58.386;15.560;2023-11-19T00:06:05;2.50;;;2.30;;
10719;SDS011;5411;58.386;15.560;2023-11-19T00:08:34;3.03;;;2.20;;
10719;SDS011;5411;58.386;15.560;2023-11-19T00:11:07;2.30;;;2.10;;
10719;SDS011;5411;58.386;15.560;2023-11-19T00:13:35;2.30;;;2.10;;
10719;SDS011;5411;58.386;15.560;2023-11-19T00:16:06;2.17;;;1.90;;
10719;SDS011;5411;58.386;15.560;2023-11-19T00:18:36;2.50;;;1.97;;
10719;SDS011;5411;58.386;15.560;2023-11-19T00:21:06;2.03;;;1.83;;
10719;SDS011;5411;58.386;15.560;2023-11-19T00:23:36;2.43;;;2.20;;
10719;SDS011;5411;58.386;15.560;2023-11-19T00:26:04;2.40;;;2.20;;
10719;SDS011;5411;58.386;15.560;2023-11-19T00:28:33;2.87;;;2.63;;
10719;SDS011;5411;58.386;15.560;2023-11-19T00:31:05;2.67;;;2.27;;
10719;SDS011;5411;58.386;15.560;2023-11-19T00:33:34;2.30;;;2.10;;
10719;SDS011;5411;58.386;15.560;2023-11-19T00:36:01;3.53;;;1.90;;
10719;SDS011;5411;58.386;15.560;2023-11-19T00:38:31;2.50;;;2.13;;
10719;SDS011;5411;58.386;15.560;2023-11-19T00:41:00;2.57;;;1.90;;
10719;SDS011;5411;58.386;15.560;2023-11-19T00:43:30;1.83;;;1.43;;
10719;SDS011;5411;58.386;15.560;2023-11-19T00:46:00;2.13;;;1.93;;
10719;SDS011;5411;58.386;15.560;2023-11-19T00:48:29;3.73;;;2.20;;
10719;SDS011;5411;58.386;15.560;2023-11-19T00:50:58;2.50;;;2.10;;
10719;SDS011;5411;58.386;15.560;2023-11-19T00:53:26;3.70;;;2.27;;
10719;SDS011;5411;58.386;15.560;2023-11-19T00:55:56;2.47;;;2.27;;
10719;SDS011;5411;58.386;15.560;2023-11-19T00:58:24;2.50;;;2.23;;
10719;SDS011;5411;58.386;15.560;2023-11-19T01:00:53;2.30;;;2.10;;
10719;SDS011;5411;58.386;15.560;2023-11-19T01:03:25;2.30;;;2.10;;
10719;SDS011;5411;58.386;15.560;2023-11-19T01:05:54;2.40;;;2.00;;
10719;SDS011;5411;58.386;15.560;2023-11-19T01:08:23;2.70;;;2.20;;
10719;SDS011;5411;58.386;15.560;2023-11-19T01:10:51;2.23;;;1.97;;
10719;SDS011;5411;58.386;15.560;2023-11-19T01:13:21;3.27;;;2.63;;
10719;SDS011;5411;58.386;15.560;2023-11-19T01:15:49;2.20;;;1.93;;
10719;SDS011;5411;58.386;15.560;2023-11-19T01:18:18;3.13;;;2.40;;
10719;SDS011;5411;58.386;15.560;2023-11-19T01:20:46;1.80;;;1.70;;
10719;SDS011;5411;58.386;15.560;2023-11-19T01:23:15;2.27;;;2.07;;
10719;SDS011;5411;58.386;15.560;2023-11-19T01:25:43;3.10;;;2.27;;
10719;SDS011;5411;58.386;15.560;2023-11-19T01:28:17;3.30;;;2.13;;
10719;SDS011;5411;58.386;15.560;2023-11-19T01:30:53;3.47;;;1.90;;
10719;SDS011;5411;58.386;15.560;2023-11-19T01:33:22;2.27;;;1.87;;
10719;SDS011;5411;58.386;15.560;2023-11-19T01:35:50;2.90;;;2.30;;
10719;SDS011;5411;58.386;15.560;2023-11-19T01:38:18;3.10;;;2.13;;
10719;SDS011;5411;58.386;15.560;2023-11-19T01:40:47;3.70;;;2.67;;
10719;SDS011;5411;58.386;15.560;2023-11-19T01:43:31;4.07;;;2.03;;
10719;SDS011;5411;58.386;15.560;2023-11-19T01:46:06;5.13;;;2.33;;
10719;SDS011;5411;58.386;15.560;2023-11-19T01:48:37;2.83;;;2.40;;
10719;SDS011;5411;58.386;15.560;2023-11-19T01:51:10;2.53;;;2.20;;
10719;SDS011;5411;58.386;15.560;2023-11-19T01:53:43;4.67;;;2.70;;
10719;SDS011;5411;58.386;15.560;2023-11-19T01:56:14;2.67;;;2.13;;
10719;SDS011;5411;58.386;15.560;2023-11-19T01:58:43;3.33;;;2.60;;
10719;SDS011;5411;58.386;15.560;2023-11-19T02:01:14;2.57;;;2.20;;
10719;SDS011;5411;58.386;15.560;2023-11-19T02:03:43;3.37;;;2.83;;
10719;SDS011;5411;58.386;15.560;2023-11-19T02:06:17;2.83;;;2.50;;
10719;SDS011;5411;58.386;15.560;2023-11-19T02:08:47;3.03;;;2.50;;
10719;SDS011;5411;58.386;15.560;2023-11-19T02:11:15;4.00;;;2.40;;
10719;SDS011;5411;58.386;15.560;2023-11-19T02:13:44;4.73;;;2.63;;
10719;SDS011;5411;58.386;15.560;2023-11-19T02:16:12;2.83;;;2.60;;
10719;SDS011;5411;58.386;15.560;2023-11-19T02:18:43;3.40;;;2.50;;
10719;SDS011;5411;58.386;15.560;2023-11-19T02:21:11;3.50;;;2.37;;
10719;SDS011;5411;58.386;15.560;2023-11-19T02:23:41;3.63;;;2.50;;
10719;SDS011;5411;58.386;15.560;2023-11-19T02:26:13;2.93;;;2.43;;
10719;SDS011;5411;58.386;15.560;2023-11-19T02:28:47;3.20;;;2.67;;
10719;SDS011;5411;58.386;15.560;2023-11-19T02:31:16;2.80;;;2.30;;
10719;SDS011;5411;58.386;15.560;2023-11-19T02:33:46;5.13;;;2.47;;
10719;SDS011;5411;58.386;15.560;2023-11-19T02:36:18;2.70;;;2.47;;
10719;SDS011;5411;58.386;15.560;2023-11-19T02:38:48;4.03;;;2.67;;
10719;SDS011;5411;58.386;15.560;2023-11-19T02:41:16;2.90;;;2.60;;
10719;SDS011;5411;58.386;15.560;2023-11-19T02:43:49;3.67;;;3.30;;
10719;SDS011;5411;58.386;15.560;2023-11-19T02:46:20;2.83;;;2.63;;
10719;SDS011;5411;58.386;15.560;2023-11-19T02:48:49;4.37;;;2.87;;
10719;SDS011;5411;58.386;15.560;2023-11-19T02:51:18;3.97;;;2.80;;
10719;SDS011;5411;58.386;15.560;2023-11-19T02:53:50;4.27;;;2.80;;
10719;SDS011;5411;58.386;15.560;2023-11-19T02:56:18;4.83;;;3.30;;
10719;SDS011;5411;58.386;15.560;2023-11-19T02:58:55;4.77;;;3.00;;
10719;SDS011;5411;58.386;15.560;2023-11-19T03:01:26;5.30;;;3.40;;
10719;SDS011;5411;58.386;15.560;2023-11-19T03:03:58;4.30;;;3.10;;
10719;SDS011;5411;58.386;15.560;2023-11-19T03:06:30;6.90;;;3.03;;
10719;SDS011;5411;58.386;15.560;2023-11-19T03:08:59;4.77;;;3.30;;
10719;SDS011;5411;58.386;15.560;2023-11-19T03:11:37;3.03;;;2.70;;
10719;SDS011;5411;58.386;15.560;2023-11-19T03:14:10;4.50;;;3.00;;
10719;SDS011;5411;58.386;15.560;2023-11-19T03:16:38;4.93;;;3.10;;
10719;SDS011;5411;58.386;15.560;2023-11-19T03:19:07;5.10;;;3.40;;
10719;SDS011;5411;58.386;15.560;2023-11-19T03:21:35;3.33;;;2.87;;
10719;SDS011;5411;58.386;15.560;2023-11-19T03:24:04;4.17;;;3.23;;
10719;SDS011;5411;58.386;15.560;2023-11-19T03:26:33;4.33;;;2.70;;
10719;SDS011;5411;58.386;15.560;2023-11-19T03:29:04;3.73;;;2.70;;
10719;SDS011;5411;58.386;15.560;2023-11-19T03:31:34;4.53;;;3.30;;
10719;SDS011;5411;58.386;15.560;2023-11-19T03:34:03;3.53;;;2.90;;
10719;SDS011;5411;58.386;15.560;2023-11-19T03:36:31;3.97;;;2.83;;
10719;SDS011;5411;58.386;15.560;2023-11-19T03:39:00;4.87;;;2.90;;
10719;SDS011;5411;58.386;15.560;2023-11-19T03:41:32;4.07;;;3.20;;
10719;SDS011;5411;58.386;15.560;2023-11-19T03:44:03;4.50;;;2.97;;
10719;SDS011;5411;58.386;15.560;2023-11-19T03:46:34;3.63;;;2.93;;
10719;SDS011;5411;58.386;15.560;2023-11-19T03:49:03;7.20;;;3.77;;
10719;SDS011;5411;58.386;15.560;2023-11-19T03:51:34;5.63;;;3.00;;
10719;SDS011;5411;58.386;15.560;2023-11-19T03:54:07;4.80;;;3.30;;
10719;SDS011;5411;58.386;15.560;2023-11-19T03:56:36;3.93;;;2.93;;
10719;SDS011;5411;58.386;15.560;2023-11-19T03:59:04;3.97;;;2.90;;
10719;SDS011;5411;58.386;15.560;2023-11-19T04:01:31;4.70;;;3.17;;
10719;SDS011;5411;58.386;15.560;2023-11-19T04:04:02;6.30;;;3.40;;
10719;SDS011;5411;58.386;15.560;2023-11-19T04:06:31;5.83;;;3.23;;
10719;SDS011;5411;58.386;15.560;2023-11-19T04:08:59;6.13;;;3.43;;
10719;SDS011;5411;58.386;15.560;2023-11-19T04:11:27;7.33;;;3.97;;
10719;SDS011;5411;58.386;15.560;2023-11-19T04:13:56;5.20;;;3.40;;
10719;SDS011;5411;58.386;15.560;2023-11-19T04:16:26;7.27;;;3.93;;
10719;SDS011;5411;58.386;15.560;2023-11-19T04:18:59;6.23;;;3.83;;
10719;SDS011;5411;58.386;15.560;2023-11-19T04:21:29;5.50;;;3.83;;
10719;SDS011;5411;58.386;15.560;2023-11-19T04:23:59;8.47;;;4.00;;
10719;SDS011;5411;58.386;15.560;2023-11-19T04:26:27;6.03;;;4.13;;
10719;SDS011;5411;58.386;15.560;2023-11-19T04:29:02;4.93;;;3.33;;
10719;SDS011;5411;58.386;15.560;2023-11-19T04:31:30;4.97;;;3.10;;
10719;SDS011;5411;58.386;15.560;2023-11-19T04:33:59;7.33;;;3.70;;
10719;SDS011;5411;58.386;15.560;2023-11-19T04:36:29;5.73;;;3.47;;
10719;SDS011;5411;58.386;15.560;2023-11-19T04:38:57;4.37;;;3.30;;
10719;SDS011;5411;58.386;15.560;2023-11-19T04:41:26;5.30;;;3.07;;
10719;SDS011;5411;58.386;15.560;2023-11-19T04:43:55;4.23;;;3.47;;
10719;SDS011;5411;58.386;15.560;2023-11-19T04:46:23;4.23;;;3.70;;
10719;SDS011;5411;58.386;15.560;2023-11-19T04:48:52;3.57;;;3.17;;
10719;SDS011;5411;58.386;15.560;2023-11-19T04:51:22;5.47;;;3.60;;
10719;SDS011;5411;58.386;15.560;2023-11-19T04:53:54;7.57;;;3.07;;
10719;SDS011;5411;58.386;15.560;2023-11-19T04:56:23;3.67;;;3.27;;
10719;SDS011;5411;58.386;15.560;2023-11-19T04:58:52;6.50;;;3.07;;
10719;SDS011;5411;58.386;15.560;2023-11-19T05:01:20;4.50;;;3.27;;
10719;SDS011;5411;58.386;15.560;2023-11-19T05:03:51;4.93;;;3.13;;
10719;SDS011;5411;58.386;15.560;2023-11-19T05:06:19;6.43;;;3.50;;
10719;SDS011;5411;58.386;15.560;2023-11-19T05:08:47;4.00;;;3.03;;
10719;SDS011;5411;58.386;15.560;2023-11-19T05:11:18;4.63;;;3.17;;
10719;SDS011;5411;58.386;15.560;2023-11-19T05:13:47;4.10;;;2.77;;
10719;SDS011;5411;58.386;15.560;2023-11-19T05:16:15;4.57;;;3.40;;
10719;SDS011;5411;58.386;15.560;2023-11-19T05:18:44;4.00;;;2.83;;
10719;SDS011;5411;58.386;15.560;2023-11-19T05:21:12;4.23;;;3.30;;
10719;SDS011;5411;58.386;15.560;2023-11-19T05:23:41;4.40;;;2.87;;
10719;SDS011;5411;58.386;15.560;2023-11-19T05:26:09;3.43;;;2.87;;
10719;SDS011;5411;58.386;15.560;2023-11-19T05:28:46;6.27;;;3.10;;
10719;SDS011;5411;58.386;15.560;2023-11-19T05:31:18;4.07;;;2.83;;
10719;SDS011;5411;58.386;15.560;2023-11-19T05:33:46;4.20;;;2.57;;
10719;SDS011;5411;58.386;15.560;2023-11-19T05:36:15;4.97;;;2.93;;
10719;SDS011;5411;58.386;15.560;2023-11-19T05:38:43;5.50;;;3.30;;
10719;SDS011;5411;58.386;15.560;2023-11-19T05:41:12;4.20;;;2.90;;
10719;SDS011;5411;58.386;15.560;2023-11-19T05:43:40;4.00;;;2.73;;
10719;SDS011;5411;58.386;15.560;2023-11-19T05:46:11;3.40;;;2.70;;
10719;SDS011;5411;58.386;15.560;2023-11-19T05:48:47;3.80;;;2.90;;
10719;SDS011;5411;58.386;15.560;2023-11-19T05:51:16;3.53;;;2.53;;
10719;SDS011;5411;58.386;15.560;2023-11-19T05:53:44;4.43;;;3.00;;
10719;SDS011;5411;58.386;15.560;2023-11-19T05:56:13;4.53;;;2.80;;
10719;SDS011;5411;58.386;15.560;2023-11-19T05:58:48;4.67;;;3.30;;
10719;SDS011;5411;58.386;15.560;2023-11-19T06:01:18;4.20;;;3.03;;
10719;SDS011;5411;58.386;15.560;2023-11-19T06:03:46;4.50;;;2.90;;
10719;SDS011;5411;58.386;15.560;2023-11-19T06:06:17;4.80;;;3.30;;
10719;SDS011;5411;58.386;15.560;2023-11-19T06:08:45;4.63;;;3.10;;
10719;SDS011;5411;58.386;15.560;2023-11-19T06:11:14;4.67;;;3.43;;
10719;SDS011;5411;58.386;15.560;2023-11-19T06:13:45;3.37;;;2.53;;
10719;SDS011;5411;58.386;15.560;2023-11-19T06:16:14;5.10;;;3.10;;
10719;SDS011;5411;58.386;15.560;2023-11-19T06:18:44;3.97;;;2.73;;
10719;SDS011;5411;58.386;15.560;2023-11-19T06:21:15;4.03;;;3.10;;
10719;SDS011;5411;58.386;15.560;2023-11-19T06:23:43;3.90;;;3.00;;
10719;SDS011;5411;58.386;15.560;2023-11-19T06:26:12;4.30;;;3.13;;
10719;SDS011;5411;58.386;15.560;2023-11-19T06:28:42;4.23;;;2.80;;
10719;SDS011;5411;58.386;15.560;2023-11-19T06:31:11;3.17;;;2.67;;
10719;SDS011;5411;58.386;15.560;2023-11-19T06:33:45;3.33;;;2.27;;
10719;SDS011;5411;58.386;15.560;2023-11-19T06:36:14;3.73;;;2.53;;
10719;SDS011;5411;58.386;15.560;2023-11-19T06:38:43;3.30;;;2.67;;
10719;SDS011;5411;58.386;15.560;2023-11-19T06:41:11;4.33;;;2.70;;
10719;SDS011;5411;58.386;15.560;2023-11-19T06:43:40;4.30;;;3.00;;
10719;SDS011;5411;58.386;15.560;2023-11-19T06:46:14;4.33;;;2.90;;
10719;SDS011;5411;58.386;15.560;2023-11-19T06:48:45;3.37;;;2.70;;
10719;SDS011;5411;58.386;15.560;2023-11-19T06:51:14;3.90;;;2.80;;
10719;SDS011;5411;58.386;15.560;2023-11-19T06:53:43;4.67;;;2.77;;
10719;SDS011;5411;58.386;15.560;2023-11-19T06:56:18;3.10;;;2.80;;
10719;SDS011;5411;58.386;15.560;2023-11-19T06:58:48;5.47;;;2.90;;
10719;SDS011;5411;58.386;15.560;2023-11-19T07:01:17;4.13;;;2.80;;
10719;SDS011;5411;58.386;15.560;2023-11-19T07:03:47;5.13;;;2.87;;
10719;SDS011;5411;58.386;15.560;2023-11-19T07:06:17;3.80;;;3.00;;
10719;SDS011;5411;58.386;15.560;2023-11-19T07:08:45;3.20;;;2.90;;
10719;SDS011;5411;58.386;15.560;2023-11-19T07:11:13;2.70;;;2.50;;
10719;SDS011;5411;58.386;15.560;2023-11-19T07:13:43;3.13;;;2.77;;
10719;SDS011;5411;58.386;15.560;2023-11-19T07:16:13;4.73;;;2.53;;
10719;SDS011;5411;58.386;15.560;2023-11-19T07:18:42;3.63;;;3.00;;
10719;SDS011;5411;58.386;15.560;2023-11-19T07:21:18;3.37;;;2.80;;
10719;SDS011;5411;58.386;15.560;2023-11-19T07:23:46;4.43;;;3.00;;
10719;SDS011;5411;58.386;15.560;2023-11-19T07:26:15;3.50;;;3.13;;
10719;SDS011;5411;58.386;15.560;2023-11-19T07:28:43;3.53;;;2.73;;
10719;SDS011;5411;58.386;15.560;2023-11-19T07:31:12;3.73;;;3.00;;
10719;SDS011;5411;58.386;15.560;2023-11-19T07:33:44;4.13;;;2.43;;
10719;SDS011;5411;58.386;15.560;2023-11-19T07:36:14;4.13;;;3.13;;
10719;SDS011;5411;58.386;15.560;2023-11-19T07:38:47;3.50;;;2.90;;
10719;SDS011;5411;58.386;15.560;2023-11-19T07:41:24;3.10;;;2.80;;
10719;SDS011;5411;58.386;15.560;2023-11-19T07:43:57;4.83;;;3.37;;
10719;SDS011;5411;58.386;15.560;2023-11-19T07:46:25;4.03;;;2.67;;
10719;SDS011;5411;58.386;15.560;2023-11-19T07:48:54;3.40;;;2.67;;
10719;SDS011;5411;58.386;15.560;2023-11-19T07:51:22;3.50;;;2.80;;
10719;SDS011;5411;58.386;15.560;2023-11-19T07:53:53;4.87;;;2.70;;
10719;SDS011;5411;58.386;15.560;2023-11-19T07:56:21;4.00;;;3.10;;
10719;SDS011;5411;58.386;15.560;2023-11-19T07:58:49;4.20;;;3.13;;
10719;SDS011;5411;58.386;15.560;2023-11-19T08:01:18;4.63;;;3.03;;
10719;SDS011;5411;58.386;15.560;2023-11-19T08:03:49;4.13;;;3.00;;
10719;SDS011;5411;58.386;15.560;2023-11-19T08:06:22;3.20;;;2.63;;
10719;SDS011;5411;58.386;15.560;2023-11-19T08:08:55;3.60;;;3.03;;
10719;SDS011;5411;58.386;15.560;2023-11-19T08:11:26;3.20;;;2.90;;
10719;SDS011;5411;58.386;15.560;2023-11-19T08:13:55;3.63;;;2.90;;
10719;SDS011;5411;58.386;15.560;2023-11-19T08:16:25;3.60;;;2.77;;
10719;SDS011;5411;58.386;15.560;2023-11-19T08:18:54;5.50;;;3.33;;
10719;SDS011;5411;58.386;15.560;2023-11-19T08:21:25;3.90;;;3.10;;
10719;SDS011;5411;58.386;15.560;2023-11-19T08:23:55;3.93;;;3.30;;
10719;SDS011;5411;58.386;15.560;2023-11-19T08:26:23;4.37;;;3.33;;
10719;SDS011;5411;58.386;15.560;2023-11-19T08:28:51;4.63;;;3.27;;
10719;SDS011;5411;58.386;15.560;2023-11-19T08:31:20;4.00;;;3.40;;
10719;SDS011;5411;58.386;15.560;2023-11-19T08:33:50;3.93;;;3.30;;
10719;SDS011;5411;58.386;15.560;2023-11-19T08:36:18;3.40;;;2.90;;
10719;SDS011;5411;58.386;15.560;2023-11-19T08:38:47;4.63;;;3.63;;
10719;SDS011;5411;58.386;15.560;2023-11-19T08:41:17;4.57;;;3.40;;
10719;SDS011;5411;58.386;15.560;2023-11-19T08:43:46;4.30;;;3.37;;
10719;SDS011;5411;58.386;15.560;2023-11-19T08:46:14;4.13;;;3.30;;
10719;SDS011;5411;58.386;15.560;2023-11-19T08:48:43;4.17;;;3.20;;
10719;SDS011;5411;58.386;15.560;2023-11-19T08:51:11;4.97;;;3.23;;
10719;SDS011;5411;58.386;15.560;2023-11-19T08:53:40;3.93;;;3.30;;
10719;SDS011;5411;58.386;15.560;2023-11-19T08:56:09;5.30;;;3.43;;
10719;SDS011;5411;58.386;15.560;2023-11-19T08:58:45;4.50;;;3.30;;
10719;SDS011;5411;58.386;15.560;2023-11-19T09:01:13;4.50;;;3.33;;
10719;SDS011;5411;58.386;15.560;2023-11-19T09:03:41;4.13;;;3.00;;
10719;SDS011;5411;58.386;15.560;2023-11-19T09:06:10;4.27;;;3.40;;
10719;SDS011;5411;58.386;15.560;2023-11-19T09:08:38;4.27;;;3.27;;
10719;SDS011;5411;58.386;15.560;2023-11-19T09:11:07;4.17;;;3.43;;
10719;SDS011;5411;58.386;15.560;2023-11-19T09:13:37;5.23;;;3.27;;
10719;SDS011;5411;58.386;15.560;2023-11-19T09:16:07;5.33;;;3.23;;
10719;SDS011;5411;58.386;15.560;2023-11-19T09:18:36;3.67;;;3.23;;
10719;SDS011;5411;58.386;15.560;2023-11-19T09:21:04;5.00;;;3.53;;
10719;SDS011;5411;58.386;15.560;2023-11-19T09:23:33;4.67;;;3.43;;
10719;SDS011;5411;58.386;15.560;2023-11-19T09:26:06;4.43;;;3.80;;
10719;SDS011;5411;58.386;15.560;2023-11-19T09:28:39;4.77;;;3.10;;
10719;SDS011;5411;58.386;15.560;2023-11-19T09:31:14;3.90;;;3.13;;
10719;SDS011;5411;58.386;15.560;2023-11-19T09:33:43;4.80;;;3.60;;
10719;SDS011;5411;58.386;15.560;2023-11-19T09:36:12;4.67;;;3.33;;
10719;SDS011;5411;58.386;15.560;2023-11-19T09:38:43;4.27;;;3.87;;
10719;SDS011;5411;58.386;15.560;2023-11-19T09:41:14;5.60;;;3.40;;
10719;SDS011;5411;58.386;15.560;2023-11-19T09:43:44;5.13;;;3.83;;
10719;SDS011;5411;58.386;15.560;2023-11-19T09:46:13;4.47;;;3.57;;
10719;SDS011;5411;58.386;15.560;2023-11-19T09:48:44;4.07;;;3.30;;
10719;SDS011;5411;58.386;15.560;2023-11-19T09:51:19;5.30;;;3.77;;
10719;SDS011;5411;58.386;15.560;2023-11-19T09:53:52;4.07;;;3.37;;
10719;SDS011;5411;58.386;15.560;2023-11-19T09:56:20;4.60;;;3.73;;
10719;SDS011;5411;58.386;15.560;2023-11-19T09:58:50;4.67;;;4.00;;
10719;SDS011;5411;58.386;15.560;2023-11-19T10:01:20;4.80;;;3.60;;
10719;SDS011;5411;58.386;15.560;2023-11-19T10:03:54;4.30;;;3.63;;
10719;SDS011;5411;58.386;15.560;2023-11-19T10:06:24;4.70;;;3.70;;
10719;SDS011;5411;58.386;15.560;2023-11-19T10:08:54;5.50;;;4.23;;
10719;SDS011;5411;58.386;15.560;2023-11-19T10:11:24;4.67;;;3.30;;
10719;SDS011;5411;58.386;15.560;2023-11-19T10:13:53;5.00;;;4.00;;
10719;SDS011;5411;58.386;15.560;2023-11-19T10:16:27;5.47;;;3.60;;
10719;SDS011;5411;58.386;15.560;2023-11-19T10:18:57;5.87;;;3.83;;
10719;SDS011;5411;58.386;15.560;2023-11-19T10:21:26;6.07;;;4.00;;
10719;SDS011;5411;58.386;15.560;2023-11-19T10:23:55;5.07;;;4.00;;
10719;SDS011;5411;58.386;15.560;2023-11-19T10:26:26;6.33;;;4.20;;
10719;SDS011;5411;58.386;15.560;2023-11-19T10:28:55;4.87;;;3.33;;
10719;SDS011;5411;58.386;15.560;2023-11-19T10:31:25;4.97;;;4.07;;
10719;SDS011;5411;58.386;15.560;2023-11-19T10:33:54;5.07;;;3.90;;
10719;SDS011;5411;58.386;15.560;2023-11-19T10:36:38;5.00;;;3.80;;
10719;SDS011;5411;58.386;15.560;2023-11-19T10:39:08;5.43;;;3.70;;
10719;SDS011;5411;58.386;15.560;2023-11-19T10:41:36;7.77;;;4.67;;
10719;SDS011;5411;58.386;15.560;2023-11-19T10:44:05;4.53;;;3.60;;
10719;SDS011;5411;58.386;15.560;2023-11-19T10:46:39;6.93;;;4.50;;
10719;SDS011;5411;58.386;15.560;2023-11-19T10:49:10;5.37;;;4.37;;
10719;SDS011;5411;58.386;15.560;2023-11-19T10:51:39;4.83;;;3.47;;
10719;SDS011;5411;58.386;15.560;2023-11-19T10:54:13;5.00;;;4.20;;
10719;SDS011;5411;58.386;15.560;2023-11-19T10:56:48;4.87;;;4.17;;
10719;SDS011;5411;58.386;15.560;2023-11-19T10:59:23;5.63;;;3.80;;
10719;SDS011;5411;58.386;15.560;2023-11-19T11:02:00;5.67;;;4.53;;
10719;SDS011;5411;58.386;15.560;2023-11-19T11:04:39;5.20;;;4.00;;
10719;SDS011;5411;58.386;15.560;2023-11-19T11:07:09;6.13;;;4.30;;
10719;SDS011;5411;58.386;15.560;2023-11-19T11:09:38;6.30;;;4.17;;
10719;SDS011;5411;58.386;15.560;2023-11-19T11:12:07;5.40;;;4.53;;
10719;SDS011;5411;58.386;15.560;2023-11-19T11:14:40;6.40;;;4.50;;
10719;SDS011;5411;58.386;15.560;2023-11-19T11:17:13;6.33;;;4.43;;
10719;SDS011;5411;58.386;15.560;2023-11-19T11:19:45;5.70;;;4.30;;
10719;SDS011;5411;58.386;15.560;2023-11-19T11:22:14;6.10;;;4.57;;
10719;SDS011;5411;58.386;15.560;2023-11-19T11:25:10;7.60;;;4.73;;
10719;SDS011;5411;58.386;15.560;2023-11-19T11:27:49;4.83;;;4.13;;
10719;SDS011;5411;58.386;15.560;2023-11-19T11:30:35;7.10;;;4.77;;
10719;SDS011;5411;58.386;15.560;2023-11-19T11:33:25;5.50;;;4.60;;
10719;SDS011;5411;58.386;15.560;2023-11-19T11:36:28;7.13;;;4.70;;
10719;SDS011;5411;58.386;15.560;2023-11-19T11:39:02;6.03;;;4.60;;
10719;SDS011;5411;58.386;15.560;2023-11-19T11:41:34;8.10;;;5.00;;
10719;SDS011;5411;58.386;15.560;2023-11-19T11:44:07;6.60;;;4.70;;
10719;SDS011;5411;58.386;15.560;2023-11-19T11:46:54;7.87;;;5.03;;
10719;SDS011;5411;58.386;15.560;2023-11-19T11:49:27;6.53;;;5.23;;
10719;SDS011;5411;58.386;15.560;2023-11-19T11:51:58;5.67;;;4.80;;
10719;SDS011;5411;58.386;15.560;2023-11-19T11:54:31;7.17;;;4.87;;
10719;SDS011;5411;58.386;15.560;2023-11-19T11:57:06;5.83;;;4.93;;
10719;SDS011;5411;58.386;15.560;2023-11-19T11:59:48;6.37;;;5.30;;
10719;SDS011;5411;58.386;15.560;2023-11-19T12:02:18;8.13;;;5.00;;
10719;SDS011;5411;58.386;15.560;2023-11-19T12:04:50;6.23;;;4.90;;
10719;SDS011;5411;58.386;15.560;2023-11-19T12:07:20;6.67;;;4.73;;
10719;SDS011;5411;58.386;15.560;2023-11-19T12:09:53;7.13;;;5.60;;
10719;SDS011;5411;58.386;15.560;2023-11-19T12:12:35;7.20;;;5.30;;
10719;SDS011;5411;58.386;15.560;2023-11-19T12:15:06;7.17;;;5.73;;
10719;SDS011;5411;58.386;15.560;2023-11-19T12:17:37;9.33;;;5.63;;
10719;SDS011;5411;58.386;15.560;2023-11-19T12:20:12;6.57;;;5.43;;
10719;SDS011;5411;58.386;15.560;2023-11-19T12:23:04;8.00;;;6.07;;
10719;SDS011;5411;58.386;15.560;2023-11-19T12:25:34;8.77;;;5.37;;
10719;SDS011;5411;58.386;15.560;2023-11-19T12:28:11;8.00;;;5.40;;
10719;SDS011;5411;58.386;15.560;2023-11-19T12:30:39;7.90;;;5.70;;
10719;SDS011;5411;58.386;15.560;2023-11-19T12:33:08;6.27;;;4.80;;
10719;SDS011;5411;58.386;15.560;2023-11-19T12:35:39;7.87;;;5.70;;
10719;SDS011;5411;58.386;15.560;2023-11-19T12:38:17;8.77;;;6.17;;
10719;SDS011;5411;58.386;15.560;2023-11-19T12:40:47;11.97;;;5.73;;
10719;SDS011;5411;58.386;15.560;2023-11-19T12:43:21;9.77;;;5.83;;
10719;SDS011;5411;58.386;15.560;2023-11-19T12:45:50;7.90;;;5.63;;
10719;SDS011;5411;58.386;15.560;2023-11-19T12:48:18;8.83;;;6.27;;
10719;SDS011;5411;58.386;15.560;2023-11-19T12:50:51;8.57;;;6.00;;
10719;SDS011;5411;58.386;15.560;2023-11-19T12:53:20;9.30;;;6.67;;
10719;SDS011;5411;58.386;15.560;2023-11-19T12:55:49;11.73;;;5.90;;
10719;SDS011;5411;58.386;15.560;2023-11-19T12:58:28;7.97;;;5.80;;
10719;SDS011;5411;58.386;15.560;2023-11-19T13:01:00;7.73;;;6.10;;
10719;SDS011;5411;58.386;15.560;2023-11-19T13:03:30;8.50;;;5.30;;
10719;SDS011;5411;58.386;15.560;2023-11-19T13:06:05;7.67;;;5.63;;
10719;SDS011;5411;58.386;15.560;2023-11-19T13:08:38;9.23;;;6.03;;
10719;SDS011;5411;58.386;15.560;2023-11-19T13:11:07;8.33;;;5.97;;
10719;SDS011;5411;58.386;15.560;2023-11-19T13:13:54;9.00;;;6.10;;
10719;SDS011;5411;58.386;15.560;2023-11-19T13:16:27;8.47;;;5.63;;
10719;SDS011;5411;58.386;15.560;2023-11-19T13:18:56;9.83;;;5.93;;
10719;SDS011;5411;58.386;15.560;2023-11-19T13:21:28;9.13;;;5.10;;
10719;SDS011;5411;58.386;15.560;2023-11-19T13:23:57;9.67;;;5.70;;
10719;SDS011;5411;58.386;15.560;2023-11-19T13:26:25;8.73;;;6.53;;
10719;SDS011;5411;58.386;15.560;2023-11-19T13:28:54;7.53;;;6.10;;
10719;SDS011;5411;58.386;15.560;2023-11-19T13:31:27;7.27;;;5.33;;
10719;SDS011;5411;58.386;15.560;2023-11-19T13:33:58;8.63;;;5.53;;
10719;SDS011;5411;58.386;15.560;2023-11-19T13:36:29;7.97;;;5.83;;
10719;SDS011;5411;58.386;15.560;2023-11-19T13:38:58;9.10;;;5.17;;
10719;SDS011;5411;58.386;15.560;2023-11-19T13:41:26;7.27;;;5.50;;
10719;SDS011;5411;58.386;15.560;2023-11-19T13:43:58;7.47;;;5.47;;
10719;SDS011;5411;58.386;15.560;2023-11-19T13:46:27;6.90;;;5.20;;
10719;SDS011;5411;58.386;15.560;2023-11-19T13:48:56;6.87;;;5.07;;
10719;SDS011;5411;58.386;15.560;2023-11-19T13:51:24;6.37;;;5.10;;
10719;SDS011;5411;58.386;15.560;2023-11-19T13:53:54;6.43;;;5.13;;
10719;SDS011;5411;58.386;15.560;2023-11-19T13:56:26;7.33;;;5.60;;
10719;SDS011;5411;58.386;15.560;2023-11-19T13:58:54;6.60;;;5.40;;
10719;SDS011;5411;58.386;15.560;2023-11-19T14:01:25;9.17;;;5.57;;
10719;SDS011;5411;58.386;15.560;2023-11-19T14:03:54;8.13;;;5.80;;
10719;SDS011;5411;58.386;15.560;2023-11-19T14:06:22;7.87;;;5.60;;
10719;SDS011;5411;58.386;15.560;2023-11-19T14:08:51;7.13;;;5.63;;
10719;SDS011;5411;58.386;15.560;2023-11-19T14:11:20;7.40;;;6.03;;
10719;SDS011;5411;58.386;15.560;2023-11-19T14:13:48;8.87;;;6.23;;
10719;SDS011;5411;58.386;15.560;2023-11-19T14:16:18;8.50;;;6.17;;
10719;SDS011;5411;58.386;15.560;2023-11-19T14:18:47;9.80;;;6.20;;
10719;SDS011;5411;58.386;15.560;2023-11-19T14:21:16;7.63;;;6.10;;
10719;SDS011;5411;58.386;15.560;2023-11-19T14:23:46;8.40;;;6.00;;
10719;SDS011;5411;58.386;15.560;2023-11-19T14:26:14;8.60;;;6.13;;
10719;SDS011;5411;58.386;15.560;2023-11-19T14:28:44;10.43;;;6.43;;
10719;SDS011;5411;58.386;15.560;2023-11-19T14:31:15;7.23;;;6.20;;
10719;SDS011;5411;58.386;15.560;2023-11-19T14:33:44;9.87;;;6.10;;
10719;SDS011;5411;58.386;15.560;2023-11-19T14:36:12;7.67;;;5.93;;
10719;SDS011;5411;58.386;15.560;2023-11-19T14:38:40;7.73;;;6.07;;
10719;SDS011;5411;58.386;15.560;2023-11-19T14:41:08;9.40;;;6.27;;
10719;SDS011;5411;58.386;15.560;2023-11-19T14:43:38;8.63;;;6.70;;
10719;SDS011;5411;58.386;15.560;2023-11-19T14:46:09;7.67;;;6.27;;
10719;SDS011;5411;58.386;15.560;2023-11-19T14:48:37;9.10;;;6.07;;
10719;SDS011;5411;58.386;15.560;2023-11-19T14:51:06;7.90;;;5.90;;
10719;SDS011;5411;58.386;15.560;2023-11-19T14:53:36;8.90;;;6.27;;
10719;SDS011;5411;58.386;15.560;2023-11-19T14:56:05;8.77;;;6.37;;
10719;SDS011;5411;58.386;15.560;2023-11-19T14:58:39;10.80;;;6.87;;
10719;SDS011;5411;58.386;15.560;2023-11-19T15:01:12;9.20;;;6.60;;
10719;SDS011;5411;58.386;15.560;2023-11-19T15:03:40;8.23;;;6.40;;
10719;SDS011;5411;58.386;15.560;2023-11-19T15:06:12;9.93;;;6.67;;
10719;SDS011;5411;58.386;15.560;2023-11-19T15:08:44;8.50;;;6.17;;